Time;durP1;ratioP1;P1;durP2;ratioP2;P2;SDS_P1;SDS_P2;PMS_P1;PMS_P2;Temp;Humidity;BMP_temperature;BMP_pressure;BME280_temperature;BME280_humidity;BME280_pressure;Samples;Min_cycle;Max_cycle;Signal;HPM_P1;HPM_P2
2022/09/07 00:01:10;;;;;;;4.75;3.33;;;;;;;26.47;56.69;100823.34;5012781;28;20046;-69
2022/09/07 00:03:38;;;;;;;3.60;3.30;;;;;;;26.54;56.87;100826.22;5013837;28;20041;-69
2022/09/07 00:06:08;;;;;;;5.32;3.10;;;;;;;26.61;56.76;100835.91;5013511;28;20057;-69
2022/09/07 00:08:37;;;;;;;4.22;3.83;;;;;;;26.67;56.28;100825.94;5015007;28;20038;-69
2022/09/07 00:11:10;;;;;;;3.50;3.20;;;;;;;26.60;56.65;100829.50;5014253;28;20045;-69
2022/09/07 00:13:40;;;;;;;3.88;3.47;;;;;;;26.43;56.93;100819.69;5014074;28;20076;-69
2022/09/07 00:16:14;;;;;;;4.95;3.38;;;;;;;26.49;56.42;100818.16;5014199;28;20543;-69
2022/09/07 00:18:43;;;;;;;3.95;3.55;;;;;;;26.40;57.35;100824.06;5014537;28;20694;-68
2022/09/07 00:21:15;;;;;;;5.25;3.65;;;;;;;26.31;57.04;100817.97;5013106;28;20058;-69
2022/09/07 00:23:43;;;;;;;3.97;3.53;;;;;;;26.22;57.69;100818.25;5014048;28;20376;-68
2022/09/07 00:26:26;;;;;;;5.30;3.65;;;;;;;26.21;57.71;100808.22;5013728;28;20096;-69
2022/09/07 00:29:00;;;;;;;4.20;3.50;;;;;;;26.38;57.23;100809.63;5013574;28;20038;-69
2022/09/07 00:31:29;;;;;;;4.40;3.58;;;;;;;26.40;57.04;100803.63;4996855;28;20069;-69
2022/09/07 00:33:59;;;;;;;4.13;3.75;;;;;;;26.53;56.44;100810.59;5019774;28;20045;-69
2022/09/07 00:36:27;;;;;;;3.92;3.50;;;;;;;26.58;56.38;100803.81;5012657;28;20053;-69
2022/09/07 00:38:55;;;;;;;5.93;3.83;;;;;;;26.55;56.83;100811.00;5013822;28;20050;-69
2022/09/07 00:41:23;;;;;;;4.20;3.50;;;;;;;26.63;56.57;100817.50;5012362;28;20056;-68
2022/09/07 00:43:57;;;;;;;8.18;3.65;;;;;;;26.65;56.83;100819.94;5013383;28;20052;-69
2022/09/07 00:46:32;;;;;;;7.35;5.45;;;;;;;26.64;56.87;100812.69;5012776;28;20050;-69
2022/09/07 00:49:06;;;;;;;9.95;4.75;;;;;;;26.63;56.74;100811.88;5013540;28;20045;-70
2022/09/07 00:51:44;;;;;;;10.25;5.05;;;;;;;26.55;57.48;100804.59;5013427;28;20054;-69
2022/09/07 00:54:22;;;;;;;5.15;4.70;;;;;;;26.52;57.51;100811.78;5013754;28;20050;-69
2022/09/07 00:56:52;;;;;;;5.70;4.35;;;;;;;26.63;56.97;100813.91;5022025;28;20046;-69
2022/09/07 00:59:24;;;;;;;4.28;3.72;;;;;;;26.74;56.65;100817.63;5013022;28;20400;-69
2022/09/07 01:01:52;;;;;;;6.30;4.38;;;;;;;26.65;57.36;100826.34;5013217;28;20038;-69
2022/09/07 01:04:22;;;;;;;6.00;4.15;;;;;;;26.56;57.87;100811.81;5013200;28;20058;-69
2022/09/07 01:06:50;;;;;;;7.20;3.67;;;;;;;26.45;57.77;100808.09;5013559;28;20049;-68
2022/09/07 01:09:21;;;;;;;5.25;3.80;;;;;;;26.52;57.60;100806.16;5013127;28;20485;-69
2022/09/07 01:11:56;;;;;;;6.55;3.65;;;;;;;26.44;58.39;100807.28;5012978;28;20049;-69
2022/09/07 01:14:32;;;;;;;4.95;3.47;;;;;;;26.43;58.54;100822.50;5012809;28;20504;-69
2022/09/07 01:17:12;;;;;;;4.90;3.72;;;;;;;26.38;59.23;100811.63;5012065;28;20042;-69
2022/09/07 01:20:07;;;;;;;3.80;3.22;;;;;;;26.40;59.41;100821.25;5012519;28;20404;-69
2022/09/07 01:22:48;;;;;;;3.90;3.60;;;;;;;26.34;59.64;100822.78;5012252;28;20049;-69
2022/09/07 01:25:19;;;;;;;4.55;4.00;;;;;;;26.12;60.85;100822.53;5013190;28;20054;-69
2022/09/07 01:28:08;;;;;;;6.00;4.70;;;;;;;25.95;61.89;100825.91;5011879;28;20045;-69
2022/09/07 01:30:39;;;;;;;4.53;4.13;;;;;;;25.92;62.15;100821.06;4995011;28;20420;-69
2022/09/07 01:33:12;;;;;;;7.68;4.93;;;;;;;25.80;62.46;100820.09;5011846;28;20053;-69
2022/09/07 01:36:17;;;;;;;4.53;3.70;;;;;;;25.77;62.90;100812.47;5012687;28;20411;-69
2022/09/07 01:38:58;;;;;;;5.70;4.05;;;;;;;25.74;63.50;100814.03;5012345;28;20062;-69
2022/09/07 01:41:35;;;;;;;8.35;4.65;;;;;;;25.70;63.39;100824.38;5012655;28;20050;-69
2022/09/07 01:44:21;;;;;;;5.68;4.25;;;;;;;25.90;62.82;100810.22;5010363;28;20046;-69
2022/09/07 01:47:00;;;;;;;6.00;5.03;;;;;;;25.87;63.09;100805.38;5012016;28;20057;-69
2022/09/07 01:49:41;;;;;;;4.45;4.05;;;;;;;25.75;63.46;100804.44;5011636;28;20053;-69
2022/09/07 01:52:18;;;;;;;5.20;4.00;;;;;;;25.83;63.35;100808.13;5012952;28;20053;-69
2022/09/07 01:55:01;;;;;;;5.40;3.85;;;;;;;25.81;63.72;100810.50;5015560;28;20042;-68
2022/09/07 01:57:40;;;;;;;7.18;4.30;;;;;;;25.80;63.66;100810.91;5012960;28;20767;-69
2022/09/07 02:00:15;;;;;;;4.18;3.78;;;;;;;25.74;64.07;100797.22;5011821;28;20049;-69
2022/09/07 02:03:00;;;;;;;6.82;4.65;;;;;;;25.66;64.28;100795.47;5012312;28;20056;-69
2022/09/07 02:05:45;;;;;;;5.10;4.60;;;;;;;25.55;64.77;100778.53;5011921;28;20492;-69
2022/09/07 02:08:19;;;;;;;4.82;4.32;;;;;;;25.62;64.33;100778.63;5012712;28;20038;-69
2022/09/07 02:10:53;;;;;;;5.38;4.38;;;;;;;25.56;64.74;100773.75;5013537;28;20050;-69
2022/09/07 02:13:55;;;;;;;4.65;4.15;;;;;;;25.55;64.91;100780.53;5012038;28;20567;-70
2022/09/07 02:16:27;;;;;;;5.95;4.78;;;;;;;25.53;64.39;100777.25;5011589;28;20068;-68
2022/09/07 02:19:06;;;;;;;7.35;5.82;;;;;;;25.54;64.26;100776.09;5011475;28;20049;-69
2022/09/07 02:21:48;;;;;;;6.38;5.68;;;;;;;25.44;65.09;100767.16;5010815;28;20050;-69
2022/09/07 02:24:23;;;;;;;5.78;5.18;;;;;;;25.45;64.78;100760.34;5011601;28;20523;-69
2022/09/07 02:26:53;;;;;;;6.13;5.00;;;;;;;25.37;64.71;100755.84;5012598;28;20388;-68
2022/09/07 02:29:21;;;;;;;6.38;5.63;;;;;;;25.36;64.80;100763.44;5010801;28;20045;-69
2022/09/07 02:31:50;;;;;;;5.45;4.90;;;;;;;25.43;64.63;100754.34;5012466;28;20037;-69
2022/09/07 02:34:19;;;;;;;8.02;5.82;;;;;;;25.36;64.96;100757.00;5012236;28;20057;-69
2022/09/07 02:36:49;;;;;;;8.57;6.05;;;;;;;25.31;65.03;100762.97;5011798;28;20046;-69
2022/09/07 02:39:17;;;;;;;6.85;5.35;;;;;;;25.33;65.29;100747.38;5011736;28;20819;-68
2022/09/07 02:41:45;;;;;;;6.88;5.78;;;;;;;25.20;65.77;100754.38;4997963;28;20053;-68
2022/09/07 02:44:20;;;;;;;6.40;5.57;;;;;;;25.27;65.76;100759.28;5011959;28;20519;-69
2022/09/07 02:47:06;;;;;;;8.05;5.47;;;;;;;25.18;66.06;100754.75;5012316;28;20045;-69
2022/09/07 02:50:11;;;;;;;5.35;4.85;;;;;;;25.13;66.26;100759.88;5010961;28;20073;-69
2022/09/07 02:52:57;;;;;;;5.60;4.82;;;;;;;25.23;65.92;100762.84;5011572;28;20412;-69
2022/09/07 02:55:39;;;;;;;7.57;4.93;;;;;;;25.14;66.29;100748.31;5018723;28;20060;-69
2022/09/07 02:58:45;;;;;;;5.88;5.25;;;;;;;25.08;66.34;100744.22;5011719;28;20381;-69
2022/09/07 03:01:19;;;;;;;6.70;5.35;;;;;;;25.18;66.50;100745.56;5011401;28;20084;-70
2022/09/07 03:04:09;;;;;;;5.53;4.70;;;;;;;25.47;65.72;100755.19;5011442;28;20401;-69
2022/09/07 03:06:48;;;;;;;4.70;4.25;;;;;;;25.54;64.98;100750.88;5009976;28;20050;-69
2022/09/07 03:09:19;;;;;;;8.20;4.18;;;;;;;25.43;64.98;100743.13;5010704;28;20045;-69
2022/09/07 03:11:48;;;;;;;7.03;4.82;;;;;;;25.33;65.10;100744.56;5011313;28;20042;-69
2022/09/07 03:14:23;;;;;;;4.38;3.90;;;;;;;25.27;65.11;100745.28;5011261;28;20054;-70
2022/09/07 03:16:54;;;;;;;7.32;3.97;;;;;;;25.42;64.28;100752.69;5010339;28;20046;-69
2022/09/07 03:19:22;;;;;;;8.30;4.13;;;;;;;25.50;63.87;100757.22;5011691;28;20404;-69
2022/09/07 03:21:50;;;;;;;8.05;4.00;;;;;;;25.55;62.91;100761.72;5011255;28;20057;-69
2022/09/07 03:24:18;;;;;;;5.70;4.00;;;;;;;25.73;62.50;100763.97;5011806;28;20046;-69
2022/09/07 03:26:47;;;;;;;7.10;4.07;;;;;;;25.81;62.05;100757.25;5009176;28;20392;-68
2022/09/07 03:29:15;;;;;;;4.32;3.92;;;;;;;25.81;61.87;100762.06;5027878;28;20044;-69
2022/09/07 03:31:44;;;;;;;6.28;3.70;;;;;;;25.81;61.78;100767.66;5015428;28;20042;-69
2022/09/07 03:34:12;;;;;;;5.20;3.80;;;;;;;25.87;61.13;100766.13;5013743;28;20045;-69
2022/09/07 03:36:39;;;;;;;6.07;4.55;;;;;;;25.85;62.22;100768.53;5014265;28;20042;-69
2022/09/07 03:39:11;;;;;;;4.88;4.40;;;;;;;25.76;62.87;100764.00;5014810;28;20042;-70
2022/09/07 03:41:39;;;;;;;8.13;4.53;;;;;;;25.74;63.35;100766.38;5015184;28;20046;-69
2022/09/07 03:44:07;;;;;;;7.78;5.28;;;;;;;25.63;64.27;100769.06;4997553;28;20061;-69
2022/09/07 03:46:35;;;;;;;7.22;5.68;;;;;;;25.46;64.82;100763.97;5014684;28;20050;-69
2022/09/07 03:49:03;;;;;;;8.15;5.15;;;;;;;25.47;64.94;100771.97;5015111;28;20046;-69
2022/09/07 03:51:31;;;;;;;6.90;5.10;;;;;;;25.49;65.56;100777.22;5014931;28;20046;-69
2022/09/07 03:53:59;;;;;;;8.93;5.20;;;;;;;25.39;65.02;100769.47;5013974;28;20396;-69
2022/09/07 03:56:27;;;;;;;6.55;5.47;;;;;;;25.35;65.34;100766.59;5014964;28;20056;-69
2022/09/07 03:58:55;;;;;;;8.82;5.47;;;;;;;25.47;64.98;100769.19;5014548;28;20061;-69
2022/09/07 04:01:25;;;;;;;7.38;4.65;;;;;;;25.40;65.24;100771.88;5014293;28;20056;-69
2022/09/07 04:03:58;;;;;;;5.93;5.30;;;;;;;25.37;65.46;100783.88;5014351;28;20050;-69
2022/09/07 04:06:30;;;;;;;6.35;5.22;;;;;;;25.27;65.77;100790.09;5013969;28;20061;-69
2022/09/07 04:09:05;;;;;;;6.95;5.82;;;;;;;25.23;66.07;100784.44;5014120;28;20526;-69
2022/09/07 04:11:34;;;;;;;7.25;5.95;;;;;;;25.29;66.43;100782.13;5013683;28;20061;-69
2022/09/07 04:14:02;;;;;;;9.52;5.50;;;;;;;25.24;65.71;100780.47;4995726;28;20053;-69
2022/09/07 04:16:30;;;;;;;7.75;5.82;;;;;;;25.13;66.01;100780.31;5013505;28;20053;-69
2022/09/07 04:18:59;;;;;;;8.07;6.18;;;;;;;25.21;66.11;100787.63;5014307;28;20050;-69
2022/09/07 04:21:29;;;;;;;9.00;5.38;;;;;;;25.23;65.77;100785.25;5014333;28;20065;-69
2022/09/07 04:23:58;;;;;;;8.43;5.50;;;;;;;25.20;66.23;100785.19;5013789;28;20377;-69
2022/09/07 04:26:28;;;;;;;9.43;5.88;;;;;;;25.22;66.43;100791.25;5014378;28;20484;-69
2022/09/07 04:28:57;;;;;;;8.38;5.78;;;;;;;25.35;65.93;100791.81;5013905;28;20046;-69
2022/09/07 04:31:26;;;;;;;8.45;5.70;;;;;;;25.39;65.56;100780.66;5011837;28;20069;-69
2022/09/07 04:33:55;;;;;;;10.48;6.78;;;;;;;25.34;66.16;100785.44;5012883;28;20046;-68
2022/09/07 04:36:24;;;;;;;8.90;6.68;;;;;;;25.21;67.41;100787.63;5007574;28;20069;-68
2022/09/07 04:38:58;;;;;;;7.88;7.07;;;;;;;25.32;66.93;100787.78;5013356;28;20054;-69
2022/09/07 04:41:28;;;;;;;8.57;6.05;;;;;;;25.53;66.26;100797.72;5013407;28;20061;-78
2022/09/07 04:44:00;;;;;;;11.68;6.90;;;;;;;25.83;65.10;100796.13;5014206;28;20404;-77
2022/09/07 04:46:34;;;;;;;12.13;6.15;;;;;;;26.43;62.81;100789.66;5014045;28;20057;-77
2022/09/07 04:49:07;;;;;;;;;;;;;;;26.79;61.43;100780.75;5013859;28;20061;-78
2022/09/07 04:51:37;;;;;;;8.20;5.50;;;;;;;27.06;60.45;100789.03;5012656;28;19921;-76
2022/09/07 04:54:06;;;;;;;8.38;4.95;;;;;;;27.17;59.82;100791.13;5013432;28;20045;-78
2022/09/07 04:56:34;;;;;;;8.50;5.60;;;;;;;27.20;60.00;100793.16;5021910;28;20052;-76
2022/09/07 04:59:02;;;;;;;9.23;6.03;;;;;;;27.31;59.49;100793.22;5023749;28;20046;-77
2022/09/07 05:01:30;;;;;;;12.18;7.40;;;;;;;27.05;60.71;100797.84;5011922;28;20053;-78
2022/09/07 05:04:00;;;;;;;13.63;7.82;;;;;;;26.93;60.75;100808.19;5013778;28;20061;-79
2022/09/07 05:06:28;;;;;;;24.52;9.95;;;;;;;26.86;61.10;100810.09;5016121;28;20389;-79
2022/09/07 05:08:57;;;;;;;21.50;10.68;;;;;;;26.80;61.42;100812.44;5010058;28;20045;-78
2022/09/07 05:11:26;;;;;;;24.05;12.55;;;;;;;26.72;61.40;100814.38;5017819;28;20849;-80
2022/09/07 05:13:58;;;;;;;24.30;12.05;;;;;;;26.92;60.72;100808.56;5000137;28;20044;-80
2022/09/07 05:16:27;;;;;;;22.25;12.35;;;;;;;26.97;60.85;100811.00;5013515;28;20053;-79
2022/09/07 05:18:57;;;;;;;24.73;11.18;;;;;;;26.94;60.48;100809.78;5011548;28;20400;-80
2022/09/07 05:21:28;;;;;;;22.20;11.07;;;;;;;26.91;60.42;100809.72;5012980;28;20054;-79
2022/09/07 05:23:57;;;;;;;19.52;11.05;;;;;;;26.91;60.70;100806.91;5012889;28;20050;-80
2022/09/07 05:26:29;;;;;;;20.27;11.18;;;;;;;26.99;60.43;100821.88;5017823;28;20054;-80
2022/09/07 05:29:01;;;;;;;24.05;12.18;;;;;;;27.00;60.28;100821.47;5017806;28;20396;-80
2022/09/07 05:31:49;;;;;;;24.48;11.55;;;;;;;27.13;59.82;100824.00;5010405;28;20065;-79
2022/09/07 05:34:17;;;;;;;24.38;11.10;;;;;;;27.22;59.44;100816.84;5014600;28;20400;-78
2022/09/07 05:37:01;;;;;;;19.27;10.73;;;;;;;27.32;58.84;100820.91;5023188;28;20038;-79
2022/09/07 05:39:28;;;;;;;19.30;9.55;;;;;;;27.21;59.06;100822.84;5008997;28;20401;-80
2022/09/07 05:41:56;;;;;;;16.48;9.10;;;;;;;27.37;58.53;100820.56;5018193;28;20041;-80
2022/09/07 05:44:24;;;;;;;16.05;8.70;;;;;;;27.19;59.43;100828.06;5012746;28;20045;-80
2022/09/07 05:47:12;;;;;;;18.85;9.10;;;;;;;27.30;59.12;100819.69;5012880;28;20045;-79
2022/09/07 05:49:40;;;;;;;20.25;8.75;;;;;;;27.24;59.17;100824.88;5011919;28;20041;-80
2022/09/07 05:52:09;;;;;;;13.70;8.23;;;;;;;27.19;59.79;100816.81;4995583;28;20396;-79
2022/09/07 05:54:37;;;;;;;15.95;8.30;;;;;;;27.15;59.45;100821.59;5012462;28;20061;-80
2022/09/07 05:57:06;;;;;;;17.13;8.48;;;;;;;26.99;60.01;100827.47;5024652;28;20061;-80
2022/09/07 05:59:34;;;;;;;9.80;6.70;;;;;;;26.92;60.15;100826.22;5011854;28;20052;-80
2022/09/07 06:02:01;;;;;;;8.07;6.30;;;;;;;27.04;59.36;100830.75;5012278;28;20065;-80
2022/09/07 06:04:30;;;;;;;12.27;7.25;;;;;;;26.92;59.92;100828.22;5012587;28;20041;-79
2022/09/07 06:06:58;;;;;;;12.48;6.97;;;;;;;27.15;59.19;100830.84;4994576;28;20057;-80
2022/09/07 06:09:46;;;;;;;10.70;6.35;;;;;;;26.92;59.74;100842.25;5011976;28;20590;-80
2022/09/07 06:12:34;;;;;;;10.75;5.60;;;;;;;27.11;59.13;100844.03;5010464;28;20077;-80
2022/09/07 06:15:02;;;;;;;7.38;5.32;;;;;;;27.07;59.29;100854.41;5010767;28;20049;-79
2022/09/07 06:17:30;;;;;;;7.72;5.60;;;;;;;27.14;58.50;100851.69;5011935;28;20484;-79
2022/09/07 06:19:58;;;;;;;7.88;4.95;;;;;;;27.14;58.90;100853.69;5011802;28;20077;-79
2022/09/07 06:22:26;;;;;;;6.82;4.78;;;;;;;27.26;58.65;100852.59;5011807;28;20045;-79
2022/09/07 06:24:58;;;;;;;6.13;5.07;;;;;;;27.17;58.51;100858.53;5012023;28;20052;-78
2022/09/07 06:27:26;;;;;;;9.35;5.07;;;;;;;27.48;57.64;100859.19;5011324;28;20049;-78
2022/09/07 06:29:55;;;;;;;7.45;4.18;;;;;;;27.49;56.96;100849.53;5010376;28;20054;-79
2022/09/07 06:32:23;;;;;;;7.55;3.78;;;;;;;27.60;56.50;100860.88;5009637;28;20061;-79
2022/09/07 06:35:12;;;;;;;5.05;3.85;;;;;;;27.57;56.57;100862.44;5009565;28;20038;-77
2022/09/07 06:37:41;;;;;;;6.10;3.90;;;;;;;27.72;55.96;100868.97;5010352;28;20046;-77
2022/09/07 06:40:10;;;;;;;6.53;3.80;;;;;;;27.74;55.45;100869.41;5009738;28;20488;-78
2022/09/07 06:42:38;;;;;;;5.65;3.60;;;;;;;27.72;55.99;100877.41;5009876;28;20056;-78
2022/09/07 06:45:09;;;;;;;5.65;4.15;;;;;;;27.84;55.33;100872.66;5010602;28;20053;-77
2022/09/07 06:47:39;;;;;;;9.25;4.72;;;;;;;28.00;55.02;100878.00;5007862;28;20060;-78
2022/09/07 06:50:07;;;;;;;7.20;4.80;;;;;;;27.94;55.71;100880.38;4996381;28;20062;-78
2022/09/07 06:52:36;;;;;;;6.32;4.97;;;;;;;27.94;55.78;100880.38;5009571;28;20034;-78
2022/09/07 06:55:27;;;;;;;12.68;5.30;;;;;;;27.98;55.59;100869.13;5007556;28;20053;-78
2022/09/07 06:57:55;;;;;;;8.43;6.07;;;;;;;27.82;56.05;100875.09;5010253;28;20045;-79
2022/09/07 07:00:23;;;;;;;9.65;5.80;;;;;;;27.82;56.33;100873.09;5005320;28;20053;-78
2022/09/07 07:02:51;;;;;;;7.95;5.88;;;;;;;27.89;56.33;100877.94;5013693;28;20053;-78
2022/09/07 07:05:19;;;;;;;11.45;6.28;;;;;;;27.90;56.56;100874.72;5014174;28;20041;-78
2022/09/07 07:07:47;;;;;;;14.88;6.40;;;;;;;27.94;56.37;100885.19;5015242;28;20432;-79
2022/09/07 07:10:15;;;;;;;20.20;8.20;;;;;;;28.04;55.61;100895.69;4997646;28;20057;-79
2022/09/07 07:12:48;;;;;;;13.80;8.05;;;;;;;28.06;55.86;100889.66;4997799;28;20048;-79
2022/09/07 07:15:16;;;;;;;18.10;8.27;;;;;;;28.15;55.18;100896.56;5021093;28;20042;-79
2022/09/07 07:17:45;;;;;;;14.93;8.23;;;;;;;28.12;55.29;100894.53;5015414;28;20034;-78
2022/09/07 07:20:22;;;;;;;13.88;7.90;;;;;;;28.11;55.86;100895.72;5014745;28;20069;-79
2022/09/07 07:22:51;;;;;;;13.70;7.53;;;;;;;28.07;55.99;100894.91;5015243;28;20492;-79
2022/09/07 07:25:20;;;;;;;12.80;7.03;;;;;;;28.06;55.57;100898.94;5015237;28;20046;-79
2022/09/07 07:27:48;;;;;;;10.02;6.47;;;;;;;28.24;55.89;100898.25;5015127;28;20137;-80
2022/09/07 07:30:17;;;;;;;10.82;6.55;;;;;;;28.46;54.71;100904.75;5015246;28;20054;-79
2022/09/07 07:32:46;;;;;;;11.15;6.35;;;;;;;28.49;54.19;100909.56;5014143;28;20536;-78
2022/09/07 07:35:14;;;;;;;11.52;7.75;;;;;;;28.37;54.08;100918.38;5014257;28;20053;-79
2022/09/07 07:37:42;;;;;;;10.82;7.10;;;;;;;28.48;54.55;100913.59;5009397;28;20053;-79
2022/09/07 07:40:12;;;;;;;15.57;7.28;;;;;;;28.64;54.37;100926.53;5012407;28;20062;-78
2022/09/07 07:42:45;;;;;;;11.23;7.60;;;;;;;28.61;55.84;100916.06;4993645;28;20046;-78
2022/09/07 07:45:14;;;;;;;14.05;7.85;;;;;;;28.46;56.49;100923.63;5004924;28;20081;-79
2022/09/07 07:48:02;;;;;;;13.70;8.52;;;;;;;28.40;56.30;100932.47;5011787;28;20054;-79
2022/09/07 07:50:31;;;;;;;11.60;8.13;;;;;;;28.26;56.97;100923.97;5012765;28;20404;-78
2022/09/07 07:53:02;;;;;;;11.23;7.15;;;;;;;28.56;56.06;100936.97;5013517;28;20046;-78
2022/09/07 07:55:50;;;;;;;12.27;7.22;;;;;;;28.64;55.85;100949.06;5012752;28;20053;-78
2022/09/07 07:58:18;;;;;;;10.30;6.47;;;;;;;28.89;54.50;100948.34;5013005;28;20053;-77
2022/09/07 08:00:47;;;;;;;11.65;7.45;;;;;;;28.80;54.64;100957.97;4991360;28;20077;-78
2022/09/07 08:03:22;;;;;;;7.53;6.07;;;;;;;28.90;54.75;100962.03;5012712;28;20049;-78
2022/09/07 08:05:51;;;;;;;8.38;6.68;;;;;;;29.06;54.75;100966.50;5008715;28;20381;-79
2022/09/07 08:08:19;;;;;;;9.20;6.00;;;;;;;29.24;53.83;100966.53;5013485;28;20073;-80
2022/09/07 08:10:47;;;;;;;10.52;7.05;;;;;;;29.30;53.90;100967.75;5010996;28;20046;-78
2022/09/07 08:13:15;;;;;;;10.88;7.32;;;;;;;29.55;52.90;100969.81;5013924;28;20061;-79
2022/09/07 08:15:44;;;;;;;12.40;6.30;;;;;;;29.72;52.35;100968.19;5012122;28;20053;-77
2022/09/07 08:18:16;;;;;;;11.57;7.78;;;;;;;29.71;52.23;100963.75;5013569;28;20058;-79
2022/09/07 08:20:44;;;;;;;11.13;6.13;;;;;;;29.67;52.08;100962.97;5010180;28;20069;-80
2022/09/07 08:23:12;;;;;;;11.60;6.72;;;;;;;29.68;51.75;100955.28;5013442;28;20049;-79
2022/09/07 08:25:51;;;;;;;11.57;6.43;;;;;;;29.59;52.90;100962.16;5013504;28;20480;-78
2022/09/07 08:28:22;;;;;;;11.32;6.13;;;;;;;29.74;52.02;100962.13;5013038;28;20053;-79
2022/09/07 08:30:50;;;;;;;8.57;6.30;;;;;;;29.73;51.40;100967.00;5012403;28;20385;-79
2022/09/07 08:33:18;;;;;;;10.68;5.22;;;;;;;29.99;50.90;100962.09;5012812;28;20050;-77
2022/09/07 08:36:02;;;;;;;12.00;5.50;;;;;;;29.87;50.32;100959.72;5011991;28;20045;-77
2022/09/07 08:38:32;;;;;;;7.25;3.97;;;;;;;29.47;50.62;100965.34;5010647;28;20056;-78
2022/09/07 08:41:02;;;;;;;5.13;3.30;;;;;;;29.45;50.56;100974.19;5009462;28;20046;-78
2022/09/07 08:43:46;;;;;;;3.67;3.20;;;;;;;29.47;50.41;100977.41;5013866;28;20050;-77
2022/09/07 08:46:39;;;;;;;3.33;3.03;;;;;;;29.54;50.31;100970.19;5006943;28;20057;-78
2022/09/07 08:49:15;;;;;;;3.90;3.50;;;;;;;29.48;49.73;100979.06;4994237;28;20045;-77
2022/09/07 08:51:49;;;;;;;4.07;3.15;;;;;;;29.67;49.70;100973.44;5012197;28;20042;-77
2022/09/07 08:54:17;;;;;;;3.28;2.97;;;;;;;29.75;49.40;100972.19;5008571;28;20045;-77
2022/09/07 08:56:49;;;;;;;5.88;3.03;;;;;;;29.68;49.35;100967.38;5012361;28;20053;-77
2022/09/07 09:00:07;;;;;;;5.10;3.17;;;;;;;29.95;48.94;100969.75;5008832;28;20531;-77
2022/09/07 09:02:35;;;;;;;5.05;3.38;;;;;;;29.86;48.85;100963.75;4983174;28;20065;-75
2022/09/07 09:05:34;;;;;;;3.40;2.78;;;;;;;29.87;48.88;100954.06;5013098;28;20416;-77
2022/09/07 09:08:40;;;;;;;3.72;2.35;;;;;;;29.91;48.20;100949.25;5010805;28;20042;-77
2022/09/07 09:11:19;;;;;;;3.03;2.45;;;;;;;29.67;48.31;100951.69;5011303;28;20045;-77
2022/09/07 09:14:05;;;;;;;2.08;1.77;;;;;;;29.94;47.94;100942.78;5012356;28;20046;-77
2022/09/07 09:16:46;;;;;;;2.97;2.45;;;;;;;29.86;46.86;100944.78;5013992;28;20053;-80
2022/09/07 09:19:32;;;;;;;3.42;2.15;;;;;;;29.83;47.89;100942.81;5008705;28;20061;-78
2022/09/07 09:22:13;;;;;;;7.50;2.47;;;;;;;29.72;48.50;100925.09;5009460;28;20053;-79
2022/09/07 09:24:53;;;;;;;2.60;2.40;;;;;;;29.94;48.66;100925.84;5008952;28;20400;-77
2022/09/07 09:27:21;;;;;;;2.78;2.47;;;;;;;30.06;47.59;100920.97;5010322;28;20106;-77
2022/09/07 09:29:49;;;;;;;2.35;2.25;;;;;;;30.25;46.85;100929.00;5011001;28;20053;-78
2022/09/07 09:32:51;;;;;;;2.42;2.10;;;;;;;30.24;47.10;100918.16;5010816;28;20392;-78
2022/09/07 09:35:36;;;;;;;2.88;2.55;;;;;;;30.26;46.90;100908.03;4970692;28;20046;-77
2022/09/07 09:38:04;;;;;;;5.78;2.20;;;;;;;30.33;47.05;100903.56;5009056;28;20049;-78
2022/09/07 09:40:34;;;;;;;2.80;2.33;;;;;;;30.43;46.83;100902.72;5004291;28;20495;-78
2022/09/07 09:43:20;;;;;;;2.17;1.98;;;;;;;30.74;45.87;100896.56;5011703;28;20038;-78
2022/09/07 09:45:51;;;;;;;5.00;2.10;;;;;;;30.55;45.94;100902.25;5009702;28;20057;-79
2022/09/07 09:48:40;;;;;;;2.35;2.13;;;;;;;30.73;45.83;100892.91;5009119;28;20038;-76
2022/09/07 09:51:14;;;;;;;3.40;2.45;;;;;;;30.92;44.69;100891.59;5009965;28;20049;-78
2022/09/07 09:54:06;;;;;;;;;;;;;;;30.68;45.21;100876.38;5008815;28;20392;-78
2022/09/07 09:56:39;;;;;;;;;;;;;;;30.65;46.16;100875.16;4991201;28;19929;-78
2022/09/07 09:59:22;;;;;;;5.07;2.88;;;;;;;30.63;45.66;100879.66;4981868;28;20542;-77
2022/09/07 10:02:28;;;;;;;4.32;2.50;;;;;;;30.87;45.76;100872.25;4999319;28;20054;-77
2022/09/07 10:05:27;;;;;;;2.88;2.05;;;;;;;31.06;45.14;100856.78;4979045;28;20050;-77
2022/09/07 10:07:56;;;;;;;5.82;2.17;;;;;;;30.87;44.79;100860.16;4995665;28;20405;-77
2022/09/07 10:10:26;;;;;;;5.55;2.13;;;;;;;31.04;45.03;100842.22;5021545;28;20046;-77
2022/09/07 10:12:55;;;;;;;2.30;2.10;;;;;;;31.26;43.58;100841.28;5013737;28;20034;-77
2022/09/07 10:15:34;;;;;;;1.98;1.77;;;;;;;31.32;43.88;100850.94;5012242;28;20050;-79
2022/09/07 10:18:20;;;;;;;5.60;2.28;;;;;;;31.41;43.92;100850.44;5010650;28;20046;-78
2022/09/07 10:20:48;;;;;;;2.22;2.00;;;;;;;31.57;43.28;100845.00;5014671;28;20602;-79
2022/09/07 10:23:26;;;;;;;3.38;1.80;;;;;;;31.50;42.98;100834.59;5012119;28;20050;-78
2022/09/07 10:25:54;;;;;;;4.10;1.83;;;;;;;31.47;43.42;100831.81;4993107;28;20045;-80
2022/09/07 10:28:23;;;;;;;5.57;2.17;;;;;;;31.27;44.06;100837.22;5010655;28;20048;-79
2022/09/07 10:31:15;;;;;;;1.58;1.48;;;;;;;31.45;43.81;100837.88;5011249;28;20037;-78
2022/09/07 10:33:54;;;;;;;1.70;1.60;;;;;;;31.49;43.75;100830.16;5000196;28;20049;-86
2022/09/07 10:36:53;;;;;;;2.30;2.10;;;;;;;31.42;43.38;100821.72;5011080;28;20046;-90
2022/09/07 10:39:30;;;;;;;2.53;1.60;;;;;;;31.41;42.82;100820.13;5009308;28;20046;-89
2022/09/07 10:42:27;;;;;;;4.60;2.08;;;;;;;31.27;43.39;100815.41;5006858;28;20049;-88
2022/09/07 10:45:20;;;;;;;2.10;2.00;;;;;;;31.47;42.84;100809.97;5011613;28;20144;-89
2022/09/07 10:48:23;;;;;;;3.45;2.00;;;;;;;31.61;42.79;100809.00;5007720;28;20050;-87
2022/09/07 10:51:05;;;;;;;3.53;2.00;;;;;;;31.78;42.63;100790.22;5010847;28;20049;-94
2022/09/07 10:53:52;;;;;;;2.17;2.00;;;;;;;31.72;42.27;100797.56;4985210;28;20053;-93
2022/09/07 10:57:03;;;;;;;5.28;2.35;;;;;;;31.68;43.01;100790.34;4978693;28;20496;-93
2022/09/07 10:59:36;;;;;;;4.97;2.58;;;;;;;31.67;42.28;100795.22;4978985;28;20050;-92
2022/09/07 11:02:47;;;;;;;1.90;1.80;;;;;;;31.49;43.17;100796.22;4992476;28;20044;-93
2022/09/07 11:06:00;;;;;;;2.17;1.98;;;;;;;31.68;42.10;100791.16;4990901;28;20045;-93
2022/09/07 11:09:07;;;;;;;3.40;1.83;;;;;;;31.77;42.64;100790.66;4985843;28;20511;-92
2022/09/07 11:12:18;;;;;;;4.30;2.35;;;;;;;31.84;41.83;100795.41;5011738;28;20046;-85
2022/09/07 11:15:08;;;;;;;3.15;1.90;;;;;;;31.69;41.41;100783.47;4976760;28;20050;-91
2022/09/07 11:18:02;;;;;;;2.50;2.30;;;;;;;31.57;43.05;100782.78;4997918;28;20034;-90
2022/09/07 11:20:42;;;;;;;5.00;2.47;;;;;;;31.90;42.74;100788.09;5003676;28;20114;-91
2022/09/07 11:23:19;;;;;;;5.03;2.42;;;;;;;31.59;43.93;100777.53;4977382;28;20070;-93
2022/09/07 11:25:54;;;;;;;2.78;2.58;;;;;;;31.95;43.02;100787.63;4979068;28;20065;-88
2022/09/07 11:28:35;;;;;;;3.03;2.35;;;;;;;31.53;43.72;100784.88;5004378;28;20514;-90
2022/09/07 11:31:29;;;;;;;2.78;2.45;;;;;;;31.76;43.39;100783.38;5015661;28;20476;-96
2022/09/07 11:34:14;;;;;;;4.07;2.08;;;;;;;31.82;44.06;100792.22;4996055;28;20045;-93
2022/09/07 11:37:08;;;;;;;3.67;2.40;;;;;;;31.95;43.57;100796.13;5000095;28;20045;-88
2022/09/07 11:39:52;;;;;;;4.18;2.70;;;;;;;31.83;43.19;100786.13;4987839;28;20060;-93
2022/09/07 11:42:29;;;;;;;3.85;2.03;;;;;;;31.85;43.18;100791.38;4994384;28;20061;-88
2022/09/07 11:45:33;;;;;;;2.80;2.55;;;;;;;31.46;42.99;100790.59;5000100;28;20064;-94
2022/09/07 11:48:12;;;;;;;2.83;2.63;;;;;;;31.60;43.11;100798.13;5019813;28;20419;-94
2022/09/07 11:50:53;;;;;;;3.83;2.75;;;;;;;31.76;43.64;100789.84;4988141;28;20049;-95
2022/09/07 11:53:29;;;;;;;2.80;2.60;;;;;;;31.88;43.28;100790.56;4971707;28;20054;-95
2022/09/07 11:56:04;;;;;;;2.60;2.35;;;;;;;32.11;42.94;100789.84;5017114;28;20054;-94
2022/09/07 11:58:54;;;;;;;2.80;2.30;;;;;;;32.12;43.13;100784.97;5009798;28;20049;-88
2022/09/07 12:01:41;;;;;;;4.22;2.13;;;;;;;31.60;43.95;100781.97;5010840;28;20080;-91
2022/09/07 12:04:41;;;;;;;2.88;2.42;;;;;;;31.71;44.72;100786.69;5002125;28;20042;-94